TimeEST,TemperatureF,Dew PointF,Humidity,Sea Level PressureIn,VisibilityMPH,Wind Direction,Wind SpeedMPH,Gust SpeedMPH,PrecipitationIn,Events,Conditions,WindDirDegrees,DateUTC
12:54 AM,28.9,18.0,64,30.04,10.0,NW,8.1,-,N/A,,Overcast,310,2013-03-05 05:54:00
2:54 AM,28.9,19.0,67,30.05,10.0,NW,5.8,-,N/A,,Overcast,310,2013-03-05 07:54:00
3:54 AM,28.9,19.0,67,30.06,10.0,WNW,4.6,-,N/A,,Overcast,300,2013-03-05 08:54:00
4:54 AM,28.9,19.0,67,30.07,10.0,NW,10.4,-,N/A,,Overcast,310,2013-03-05 09:54:00
5:54 AM,28.9,19.0,67,30.08,10.0,WNW,8.1,-,N/A,,Overcast,300,2013-03-05 10:54:00
6:54 AM,28.9,19.0,67,30.09,10.0,WNW,6.9,-,N/A,,Overcast,300,2013-03-05 11:54:00
7:54 AM,28.4,19.4,69,30.07,10.0,NW,5.8,-,N/A,,Overcast,310,2013-03-05 12:54:00
8:54 AM,30.0,19.0,64,30.09,10.0,NNW,4.6,-,N/A,,Overcast,330,2013-03-05 13:54:00
9:54 AM,30.9,19.9,64,30.09,10.0,WNW,4.6,-,N/A,,Overcast,290,2013-03-05 14:54:00
10:54 AM,33.1,19.0,56,30.07,10.0,NE,4.6,-,N/A,,Overcast,40,2013-03-05 15:54:00
11:41 AM,33.8,19.4,56,30.04,10.0,North,5.8,-,N/A,,Overcast,350,2013-03-05 16:41:00
11:54 AM,35.1,19.0,52,30.06,10.0,Calm,Calm,-,N/A,,Overcast,0,2013-03-05 16:54:00
12:54 PM,35.1,19.9,54,30.05,10.0,South,3.5,-,N/A,,Mostly Cloudy,170,2013-03-05 17:54:00
1:54 PM,37.9,19.9,48,30.02,10.0,Calm,Calm,-,N/A,,Clear,0,2013-03-05 18:54:00
2:54 PM,39.9,19.9,45,29.99,10.0,Calm,Calm,-,N/A,,Clear,0,2013-03-05 19:54:00
3:54 PM,39.9,21.0,47,29.98,10.0,SSE,3.5,-,N/A,,Clear,160,2013-03-05 20:54:00
4:54 PM,41.0,21.0,45,29.96,10.0,ESE,3.5,-,N/A,,Clear,110,2013-03-05 21:54:00
5:54 PM,39.0,21.0,49,29.96,10.0,ESE,3.5,-,N/A,,Clear,120,2013-03-05 22:54:00
6:54 PM,35.1,21.0,57,29.97,10.0,East,4.6,-,N/A,,Clear,80,2013-03-05 23:54:00
7:54 PM,30.0,24.1,79,29.96,10.0,ESE,3.5,-,N/A,,Clear,120,2013-03-06 00:54:00
8:54 PM,30.9,21.9,69,29.96,10.0,Calm,Calm,-,N/A,,Clear,0,2013-03-06 01:54:00
9:54 PM,30.9,21.9,69,29.94,10.0,Calm,Calm,-,N/A,,Clear,0,2013-03-06 02:54:00
10:54 PM,33.1,21.9,64,29.92,10.0,ENE,4.6,-,N/A,,Mostly Cloudy,60,2013-03-06 03:54:00
11:54 PM,33.1,23.0,66,29.90,10.0,East,8.1,-,N/A,,Mostly Cloudy,80,2013-03-06 04:54:00